Akron, Iowa
Current Conditions -  °F | °C
As of 4:15 PM on Monday 24 Nov 2014 (Local Time) from KLRJ Reporting Station
Overcast Overcast  
Wind Chill: 15°   Ceiling: 3000
Heat Index: 28°   Visibility: 10mi
Dew Point: 16°   Wind: 22mph
Humidity: 59%   Direction: 320°NW
Pressure: 29.85"   Gusts: 31mph
Location:  42.83°N, 96.56°W
Report Text: KLRJ 242215Z AUTO 32019G27KT 10SM OVC030 M02/M09 A2985 RMK AO2
Loading
Personal Weather Stations






























Interactive Weather Map New forecast layout! Learn more

10-Day Weather Forecast

Advertisements
Track Severe Weather on mobile